Flight Track Log - Related Links

Times and Time Zones

All times are in EDT time to prevent confusion due to time zone crossing. See the UAL1177 flight status page for this flight to view local times or setup timezone preferences in your user account.

Time Position Orientation Groundspeed Altitude Reporting Facility
EDT Latitude Longitude Course Direction KTS MPH feet Rate Location/Type
Sun 06:43:11 PM 35.8664 -78.8164 253° West 183 211 1,300  Level Washington Center
Sun 06:43:47 PM 35.8781 -78.8528 292° West 224 258 2,500 2,505 Climbing Washington Center
Sun 06:44:54 PM 35.9608 -78.8717 350° North 298 343 5,600 2,815 Climbing Washington Center
Sun 06:45:57 PM 36.0244 -78.9153 331° Northwest 302 348 8,600 2,678 Climbing Washington Center
Sun 06:46:00 PM 35.8329 -79.3040 262° West  Level FlightAware Approximate
Sun 06:46:55 PM 36.0767 -78.9894 311° West 296 341 11,000  Level Washington Center
Sun 06:47:00 PM 35.8185 -79.4339 262° West  Level FlightAware Approximate
Sun 06:47:56 PM 36.0694 -79.0894 265° West 276 318 12,700  Level Washington Center
Sun 06:48:00 PM 35.8092 -79.5634 253° West  Level FlightAware Approximate
Sun 06:49:56 PM 35.9639 -79.2797 236° Southwest 315 362 16,100  Level Atlanta Center
Sun 06:50:56 PM 35.9014 -79.3886 235° Southwest 356 410 18,100 2,250 Climbing Atlanta Center
Sun 06:51:56 PM 35.8331 -79.5153 236° Southwest 406 467 20,600 2,150 Climbing Atlanta Center
Sun 06:52:56 PM 35.7983 -79.6478 252° West 424 488 22,400 1,700 Climbing Atlanta Center
Sun 06:53:56 PM 35.7739 -79.7822 262° West 417 480 24,000 1,550 Climbing Atlanta Center
Sun 06:54:00 PM 35.7652 -79.7796 262° West  Level FlightAware Approximate
Sun 06:54:56 PM 35.7475 -79.9294 258° West 428 493 25,500  Level Atlanta Center
Sun 06:55:56 PM 35.7167 -80.0692 255° West 433 498 26,000 850 Climbing Atlanta Center
Sun 06:56:56 PM 35.6578 -80.1869 238° Southwest 440 506 27,200 1,000 Climbing Atlanta Center
Sun 06:57:56 PM 35.5886 -80.3156 237° Southwest 455 524 28,000 400 Climbing Atlanta Center
Sun 06:58:56 PM 35.5097 -80.4594 236° Southwest 466 536 28,000  Level Atlanta Center
Sun 06:59:56 PM 35.4122 -80.5603 220° Southwest 466 536 28,000  Level Atlanta Center
Sun 07:00:56 PM 35.3153 -80.6664 222° Southwest 471 542 28,000  Level Atlanta Center
Sun 07:01:56 PM 35.2244 -80.7844 227° Southwest 471 542 28,000 250 Level Atlanta Center
Sun 07:02:56 PM 35.1228 -80.8825 218° Southwest 470 541 28,500 750 Climbing Atlanta Center
Sun 07:03:56 PM 35.0361 -81.0050 229° Southwest 470 541 29,500 750 Climbing Atlanta Center
Sun 07:04:56 PM 34.9742 -81.1236 238° Southwest 470 541 30,000 250 Climbing Atlanta Center
Sun 07:05:56 PM 34.9042 -81.2553 237° Southwest 470 541 30,000  Level Atlanta Center
Sun 07:06:56 PM 34.8342 -81.3867 237° Southwest 470 541 30,000  Level Atlanta Center
Sun 07:07:56 PM 34.7639 -81.5181 237° Southwest 465 535 30,000  Level Atlanta Center
Sun 07:08:56 PM 34.6956 -81.6489 238° Southwest 465 535 30,000  Level Atlanta Center
Sun 07:09:56 PM 34.6247 -81.7694 234° Southwest 465 535 30,000  Level Atlanta Center
Sun 07:10:56 PM 34.5561 -81.8975 237° Southwest 460 529 30,000  Level Atlanta Center
Sun 07:11:56 PM 34.4875 -82.0278 237° Southwest 460 529 30,000  Level Atlanta Center
Sun 07:12:56 PM 34.4183 -82.1553 237° Southwest 460 529 30,000  Level Atlanta Center
Sun 07:13:56 PM 34.3494 -82.2850 237° Southwest 460 529 30,000  Level Atlanta Center
Sun 07:14:56 PM 34.2781 -82.4122 236° Southwest 460 529 30,000  Level Atlanta Center
Sun 07:15:56 PM 34.2067 -82.5417 236° Southwest 460 529 30,000  Level Atlanta Center
Sun 07:16:56 PM 34.1372 -82.6736 238° Southwest 460 529 30,000  Level Atlanta Center
Sun 07:17:56 PM 34.0656 -82.8025 236° Southwest 467 537 30,000  Level Atlanta Center
Sun 07:18:56 PM 33.9897 -82.9289 234° Southwest 467 537 30,000  Level Atlanta Center
Sun 07:19:56 PM 33.9175 -83.0575 236° Southwest 467 537 30,000  Level Atlanta Center
Sun 07:20:56 PM 33.8478 -83.1883 237° Southwest 474 545 30,000  Level Atlanta Center
Sun 07:21:56 PM 33.7650 -83.3267 234° Southwest 468 539 30,000  Level Atlanta Center
Sun 07:22:56 PM 33.6928 -83.4569 236° Southwest 473 544 30,000  Level Atlanta Center
Sun 07:23:56 PM 33.6203 -83.5822 235° Southwest 473 544 30,000  Level Atlanta Center
Sun 07:24:56 PM 33.5494 -83.7097 236° Southwest 468 539 30,000  Level Atlanta Center
Sun 07:25:56 PM 33.4769 -83.8347 235° Southwest 468 539 30,000  Level Atlanta Center
Sun 07:26:56 PM 33.4039 -83.9642 236° Southwest 473 544 30,000  Level Atlanta Center
Sun 07:27:56 PM 33.3308 -84.0886 235° Southwest 473 544 30,000  Level Atlanta Center
Sun 07:28:56 PM 33.2619 -84.2103 236° Southwest 463 533 30,000  Level Atlanta Center
Sun 07:29:56 PM 33.1992 -84.3217 236° Southwest 457 526 30,000  Level Atlanta Center
Sun 07:30:56 PM 33.1256 -84.4431 234° Southwest 457 526 30,000  Level Atlanta Center
Sun 07:31:56 PM 33.0564 -84.5642 236° Southwest 451 519 30,000  Level Atlanta Center
Sun 07:32:56 PM 32.9847 -84.6875 235° Southwest 451 519 30,000  Level Atlanta Center
Sun 07:33:56 PM 32.9131 -84.8108 235° Southwest 458 527 30,000  Level Atlanta Center
Sun 07:34:56 PM 32.8392 -84.9364 235° Southwest 463 533 30,000  Level Atlanta Center
Sun 07:35:56 PM 32.7653 -85.0542 233° Southwest 457 526 30,000  Level Atlanta Center
Sun 07:36:56 PM 32.6972 -85.1817 238° Southwest 457 526 30,000  Level Atlanta Center
Sun 07:37:56 PM 32.6208 -85.3039 233° Southwest 463 533 30,000  Level Atlanta Center
Sun 07:38:56 PM 32.5467 -85.4286 235° Southwest 468 539 30,000  Level Atlanta Center
Sun 07:39:56 PM 32.4719 -85.5531 235° Southwest 468 539 30,000  Level Atlanta Center
Sun 07:40:56 PM 32.3975 -85.6772 235° Southwest 468 539 30,000  Level Atlanta Center
Sun 07:41:56 PM 32.3164 -85.8061 233° Southwest 476 548 30,000  Level Atlanta Center
Sun 07:42:56 PM 32.2436 -85.9272 235° Southwest 482 555 30,000  Level Atlanta Center
Sun 07:43:56 PM 32.1686 -86.0508 234° Southwest 470 541 30,000  Level Atlanta Center
Sun 07:44:56 PM 32.0850 -86.1839 233° Southwest 464 534 30,000 350 Level Atlanta Center
Sun 07:45:56 PM 32.0139 -86.3069 236° Southwest 470 541 30,700 500 Climbing Atlanta Center
Sun 07:46:56 PM 31.9406 -86.4275 234° Southwest 465 535 31,000 700 Climbing Atlanta Center
Sun 07:47:56 PM 31.8672 -86.5453 234° Southwest 465 535 32,100 1,100 Climbing Atlanta Center
Sun 07:48:56 PM 31.7981 -86.6608 235° Southwest 454 522 33,200 950 Climbing Atlanta Center
Sun 07:49:56 PM 31.7269 -86.7733 233° Southwest 449 517 34,000 400 Climbing Atlanta Center
Sun 07:50:56 PM 31.6575 -86.8883 235° Southwest 444 511 34,000  Level Atlanta Center
Sun 07:51:56 PM 31.5881 -86.9983 233° Southwest 444 511 34,000  Level Atlanta Center
Sun 07:52:56 PM 31.5336 -87.0964 237° Southwest 425 489 34,000  Level Atlanta Center
Sun 07:55:25 PM 31.3667 -87.3517 233° Southwest 410 472 34,000  Level Houston Center
Sun 07:56:27 PM 31.2839 -87.4822 233° Southwest 415 478 34,000  Level Houston Center
Sun 07:57:29 PM 31.2147 -87.5919 234° Southwest 418 481 34,000  Level Houston Center
Sun 07:58:31 PM 31.1450 -87.7036 234° Southwest 418 481 34,000  Level Houston Center
Sun 07:59:33 PM 31.0747 -87.8131 233° Southwest 420 483 34,000  Level Houston Center
Sun 08:00:35 PM 31.0033 -87.9236 233° Southwest 427 491 34,000  Level Houston Center
Sun 08:01:37 PM 30.9322 -88.0331 233° Southwest 426 490 34,000  Level Houston Center
Sun 08:02:39 PM 30.8478 -88.1656 233° Southwest 426 490 34,000  Level Houston Center
Sun 08:03:40 PM 30.7767 -88.2758 233° Southwest 426 490 34,000  Level Houston Center
Sun 08:04:42 PM 30.7111 -88.3894 236° Southwest 425 489 34,000  Level Houston Center
Sun 08:05:44 PM 30.6658 -88.5264 249° West 428 493 34,000  Level Houston Center
Sun 08:06:46 PM 30.6228 -88.6553 249° West 428 493 34,000  Level Houston Center
Sun 08:07:48 PM 30.5781 -88.7844 248° West 430 495 34,000  Level Houston Center
Sun 08:08:50 PM 30.5342 -88.9133 248° West 431 496 34,000  Level Houston Center
Sun 08:09:52 PM 30.4836 -89.0603 248° West 434 499 34,000  Level Houston Center
Sun 08:10:54 PM 30.4381 -89.1886 248° West 431 496 34,000  Level Houston Center
Sun 08:11:56 PM 30.3950 -89.3189 249° West 433 498 34,000  Level Houston Center
Sun 08:12:58 PM 30.3494 -89.4478 248° West 432 497 34,000  Level Houston Center
Sun 08:14:00 PM 30.3036 -89.5764 248° West 431 496 34,000  Level Houston Center
Sun 08:15:02 PM 30.2558 -89.7069 247° West 431 496 34,000  Level Houston Center
Sun 08:16:04 PM 30.2067 -89.8431 247° West 443 510 34,000  Level Houston Center
Sun 08:17:05 PM 30.1633 -89.9725 249° West 432 497 34,000  Level Houston Center
Sun 08:18:07 PM 30.1164 -90.1019 247° West 434 499 34,000  Level Houston Center
Sun 08:19:09 PM 30.0606 -90.2594 248° West 440 506 34,000  Level Houston Center
Sun 08:20:11 PM 30.0131 -90.3892 247° West 441 507 34,000 -48 Level Houston Center
Sun 08:21:13 PM 29.9658 -90.5200 247° West 442 509 33,900  Descending Houston Center
Sun 08:22:15 PM 29.9189 -90.6492 247° West 437 503 34,000 48 Climbing Houston Center
Sun 08:23:17 PM 29.8719 -90.7775 247° West 437 503 34,000  Level Houston Center
Sun 08:24:19 PM 29.8256 -90.9058 247° West 434 499 34,000  Level Houston Center
Sun 08:25:21 PM 29.7703 -91.0578 247° West 431 496 34,000  Level Houston Center
Sun 08:26:23 PM 29.7228 -91.1828 246° West 427 491 34,000  Level Houston Center
Sun 08:27:25 PM 29.6408 -91.2853 227° Southwest 437 503 34,000  Level Houston Center
Sun 08:28:26 PM 29.5589 -91.3881 228° Southwest 436 502 34,000  Level Houston Center
Sun 08:29:28 PM 29.4764 -91.4906 227° Southwest 437 503 34,000  Level Houston Center
Sun 08:30:30 PM 29.4411 -91.6119 252° West 416 479 34,000  Level Houston Center
Sun 08:31:32 PM 29.4467 -91.7469 273° West 414 476 34,000  Level Houston Center
Sun 08:32:34 PM 29.4508 -91.9050 272° West 412 474 34,000  Level Houston Center
Sun 08:33:36 PM 29.4569 -92.0353 273° West 410 472 34,000  Level Houston Center
Sun 08:34:38 PM 29.4619 -92.1656 273° West 410 472 34,000  Level Houston Center
Sun 08:35:39 PM 29.4678 -92.2964 273° West 411 473 34,000  Level Houston Center
Sun 08:36:41 PM 29.4728 -92.4261 273° West 407 468 34,000  Level Houston Center
Sun 08:37:43 PM 29.4767 -92.5575 272° West 411 473 34,000  Level Houston Center
Sun 08:38:45 PM 29.4822 -92.6881 273° West 410 472 34,000  Level Houston Center
Sun 08:39:46 PM 29.4875 -92.8453 272° West 411 473 34,000  Level Houston Center
Sun 08:40:48 PM 29.4928 -92.9747 273° West 408 470 34,000  Level Houston Center
Sun 08:41:50 PM 29.4972 -93.1064 272° West 412 474 34,000  Level Houston Center
Sun 08:42:52 PM 29.5019 -93.2383 272° West 413 475 34,000 -145 Level Houston Center
Sun 08:43:54 PM 29.5061 -93.3703 272° West 413 475 33,700 -1,854 Descending Houston Center
Sun 08:44:55 PM 29.5097 -93.5011 272° West 412 474 30,200 -3,317 Descending Houston Center
Sun 08:45:57 PM 29.5133 -93.6367 272° West 421 484 26,900 -2,903 Descending Houston Center
Sun 08:46:59 PM 29.5175 -93.7694 272° West 418 481 24,200 -2,878 Descending Houston Center
Sun 08:48:00 PM 29.5217 -93.9242 272° West 405 466 21,000 -2,780 Descending Houston Center
Sun 08:49:02 PM 29.5253 -94.0483 272° West 392 451 18,500 -2,458 Descending Houston Center
Sun 08:49:23 PM 29.5256 -94.0914 270° West 386 444 17,600 -2,516 Descending Houston Center
Sun 08:50:04 PM 29.5286 -94.1717 273° West 379 436 15,900 -2,510 Descending Houston Center
Sun 08:51:01 PM 29.5311 -94.2925 271° West 369 425 13,500 -1,415 Descending Houston Center
Sun 08:52:07 PM 29.5553 -94.3964 285° West 352 405 13,000 -732 Descending Houston Center
Sun 08:53:04 PM 29.5981 -94.5003 295° West 344 396 12,000 -1,220 Descending Houston Center
Sun 08:54:05 PM 29.6411 -94.5983 297° West 337 388 10,600 -984 Descending Houston Center
Sun 08:55:12 PM 29.6789 -94.6842 297° West 332 382 9,900 -1,125 Descending Houston Center
Sun 08:56:13 PM 29.7203 -94.7856 295° West 293 337 8,200 -1,692 Descending Houston Center
Sun 08:57:09 PM 29.7531 -94.8633 296° West 297 342 6,600 -1,065 Descending Houston Center
Sun 08:58:17 PM 29.7931 -94.9544 297° West 298 343 6,000 -279 Descending Houston Center
Sun 08:59:18 PM 29.8281 -95.0392 295° West 296 341 6,000  Level Houston Center
Sun 09:00:12 PM 29.8636 -95.1242 296° West 294 338 6,000  Level Houston Center
Sun 09:02:14 PM 29.8989 -95.3006 283° West 284 327 6,000  Level Houston Center
Sun 09:03:15 PM 29.8997 -95.3992 271° West 282 325 6,000  Level Houston Center
Sun 09:04:17 PM 29.8994 -95.4908 270° West 284 327 6,000  Level Houston Center
Sun 09:05:18 PM 29.9014 -95.5797 271° West 278 320 6,000  Level Houston Center
Sun 09:06:19 PM 29.9008 -95.6689 270° West 250 288 6,000  Level Houston Center
Sun 09:07:14 PM 29.9000 -95.7317 269° West 212 244 6,000  Level Houston Center
Sun 09:07:30 PM 29.9011 -95.7403 278° West 220 253 6,000  Level Houston Center
Sun 09:08:27 PM 29.9311 -95.7981 301° West 239 275 6,000 -254 Level Houston Center
Sun 09:09:28 PM 29.9853 -95.7675 26° Northeast 224 258 5,500 -513 Descending Houston Center
Sun 09:10:24 PM 29.9925 -95.7089 82° East 210 242 5,000 -270 Descending Houston Center
Sun 09:11:19 PM 29.9936 -95.6508 89° East 187 215 5,000 -167 Level Houston Center
Sun 09:11:36 PM 29.9936 -95.6372 90° East 194 223 4,800 -1,180 Descending Houston Center
Sun 09:12:20 PM 29.9922 -95.5883 92° East 191 220 3,800 -1,065 Descending Houston Center
Sun 09:12:38 PM 29.9933 -95.5764 84° East 191 220 3,700 -800 Descending Houston Center
Sun 09:13:20 PM 29.9936 -95.5328 90° East 176 203 3,000 -871 Descending Houston Center
Sun 09:13:40 PM 29.9942 -95.5197 87° East 184 212 2,800 -968 Descending Houston Center
Sun 09:14:22 PM 29.9928 -95.4772 92° East 174 200 2,000 -1,143 Descending Houston Center

Login

Don't have an account? Register now (free) for customized features, flight alerts, and more!